HELX  Luxor International Airport

Add Bookmark

Luxor, Egypt

Status IATA
Operational LXR
Latitude Longitude
25° 40' 15" N 32° 42' 23" E
25.671000 32.706600
Local (DST + 2) UTC (GMT + 2)
Jul 24, 2014 04:09 Jul 24, 2014 02:09
Sunrise-Sunset Local UTC
Begin Civil Twilight 04:45 02:45
Sunrise 05:10 03:10
Sunset 06:40 16:40
End Civil Twilight 07:05 17:05

Current Weather

METAR Observed VFR
HELX 240100Z 20001KT CAVOK 29/10 Q1006 NOSIG Thu, Jul 24, 2014 @ 01:00 UTC
(1 Hour, 9 Minutes ago)
Visual Flight Rules

Decoded METAR

Wind Visibility Clouds Conditions
200° at 1 kt (2 kph) 10 km or more
  • Clear skies
  • No significant weather
Temperatures Readings Precipitation
Current Temp 29°C (84°F)
Dewpoint 10°C (50°F)
Humidity 31%
Altimeter 29.7"Hg
Sea Level Pressure 1006mb
Field Elevation 288.71'
None Recorded

Forecast Weather

TAF
TAF HELX 232300Z 2400/2506 32008KT CAVOK
From To
Thu, Jul 24, 2014 @ 00:00 UTC Fri, Jul 25, 2014 @ 06:00 UTC
Wind Visibility Conditions
320° at 8 knots (15 kph) 10 km or more
  • No significant weather

24 Hour Weather History

Loading
-

24 Hour Weather Graphs

Loading
-

CheckWX.com is intended as a tool to help pilots better visualize weather data. It is not intended as a substitute for an official weather briefing obtained from a Flight Service Station. CheckWX.com does not meet the FAA requirements for an official pre-flight weather briefing. Therefore, it's important that pilots still call and obtain an official FSS pre-flight weather briefing.